createdAt,value
2023-02-19T00:01:25.889Z,55.67
2023-02-19T00:04:07.649Z,55.99
2023-02-19T00:06:34.695Z,56.20
2023-02-19T00:09:01.854Z,57.00
2023-02-19T00:11:31.145Z,56.84
2023-02-19T00:13:59.350Z,57.64
2023-02-19T00:16:32.065Z,57.90
2023-02-19T00:19:01.227Z,58.71
2023-02-19T00:21:28.039Z,58.75
2023-02-19T00:23:57.252Z,58.62
2023-02-19T00:26:24.238Z,58.61
2023-02-19T00:28:52.397Z,58.30
2023-02-19T00:31:22.096Z,58.90
2023-02-19T00:33:51.802Z,58.62
2023-02-19T00:36:18.898Z,59.10
2023-02-19T00:38:46.221Z,58.87
2023-02-19T00:41:20.188Z,59.50
2023-02-19T00:43:49.048Z,59.81
2023-02-19T00:46:21.876Z,59.94
2023-02-19T00:48:48.722Z,59.02
2023-02-19T00:51:16.105Z,59.71
2023-02-19T00:53:43.091Z,59.90
2023-02-19T00:56:10.117Z,60.41
2023-02-19T00:58:37.237Z,59.96
2023-02-19T01:01:05.603Z,60.16
2023-02-19T01:03:33.445Z,60.04
2023-02-19T01:06:00.532Z,59.73
2023-02-19T01:08:27.969Z,60.65
2023-02-19T01:10:54.793Z,61.07
2023-02-19T01:13:21.540Z,60.96
2023-02-19T01:15:48.299Z,60.22
2023-02-19T01:18:15.140Z,59.07
2023-02-19T01:20:43.674Z,59.13
2023-02-19T01:23:12.052Z,59.21
2023-02-19T01:25:42.601Z,58.13
2023-02-19T01:28:10.715Z,57.91
2023-02-19T01:30:39.390Z,57.79
2023-02-19T01:33:07.513Z,57.21
2023-02-19T01:35:34.967Z,57.37
2023-02-19T01:38:01.701Z,57.22
2023-02-19T01:40:28.614Z,57.05
2023-02-19T01:42:55.389Z,56.10
2023-02-19T01:45:22.252Z,56.26
2023-02-19T01:47:55.363Z,55.86
2023-02-19T01:50:23.057Z,56.42
2023-02-19T01:52:49.723Z,55.66
2023-02-19T01:55:17.993Z,55.74
2023-02-19T01:57:47.105Z,56.25
2023-02-19T02:00:17.596Z,55.33
2023-02-19T02:02:49.826Z,55.88
2023-02-19T02:06:06.172Z,56.10
2023-02-19T02:09:00.173Z,55.47
2023-02-19T02:11:27.718Z,55.43
2023-02-19T02:13:54.655Z,55.19
2023-02-19T02:16:34.195Z,55.25
2023-02-19T02:19:06.898Z,54.11
2023-02-19T02:21:49.751Z,55.45
2023-02-19T02:24:34.738Z,54.17
2023-02-19T02:27:04.696Z,54.53
2023-02-19T02:30:09.627Z,54.67
2023-02-19T02:33:18.153Z,54.89
2023-02-19T02:35:49.371Z,54.26
2023-02-19T02:38:18.759Z,55.14
2023-02-19T02:40:45.759Z,55.01
2023-02-19T02:43:13.933Z,54.30
2023-02-19T02:45:41.196Z,54.90
2023-02-19T02:48:33.704Z,55.43
2023-02-19T02:51:19.917Z,56.01
2023-02-19T02:54:19.049Z,55.94
2023-02-19T02:56:47.085Z,56.77
2023-02-19T02:59:22.108Z,57.33
2023-02-19T03:02:12.703Z,57.96
2023-02-19T03:04:59.481Z,57.93
2023-02-19T03:07:29.942Z,57.63
2023-02-19T03:09:58.639Z,58.03
2023-02-19T03:12:44.466Z,57.87
2023-02-19T03:15:31.860Z,58.95
2023-02-19T03:18:22.854Z,59.53
2023-02-19T03:20:52.328Z,59.75
2023-02-19T03:23:21.279Z,59.98
2023-02-19T03:26:03.433Z,60.09
2023-02-19T03:28:59.691Z,60.03
2023-02-19T03:31:27.873Z,61.10
2023-02-19T03:34:01.483Z,61.70
2023-02-19T03:36:37.733Z,61.83
2023-02-19T03:39:07.342Z,61.18
2023-02-19T03:41:41.274Z,62.29
2023-02-19T03:44:18.215Z,62.13
2023-02-19T03:46:58.739Z,62.08
2023-02-19T03:49:29.621Z,62.24
2023-02-19T03:52:05.603Z,61.98
2023-02-19T03:54:38.347Z,61.77
2023-02-19T03:57:07.661Z,62.16
2023-02-19T03:59:47.253Z,62.73
2023-02-19T04:02:18.406Z,61.58
2023-02-19T04:04:56.940Z,62.17
2023-02-19T04:07:24.138Z,61.68
2023-02-19T04:09:52.515Z,61.12
2023-02-19T04:12:21.299Z,60.99
2023-02-19T04:15:01.659Z,61.09
2023-02-19T04:17:37.133Z,61.98
2023-02-19T04:20:05.659Z,62.00
2023-02-19T04:22:32.634Z,62.56
2023-02-19T04:24:59.437Z,63.22
2023-02-19T04:27:26.259Z,63.49
2023-02-19T04:29:53.171Z,63.18
2023-02-19T04:32:19.887Z,63.76
2023-02-19T04:34:46.632Z,63.49
2023-02-19T04:37:13.613Z,62.60
2023-02-19T04:39:40.363Z,62.39
2023-02-19T04:42:07.135Z,62.65
2023-02-19T04:44:34.625Z,62.68
2023-02-19T04:47:01.634Z,62.08
2023-02-19T04:49:28.429Z,61.65
2023-02-19T04:51:55.302Z,61.42
2023-02-19T04:54:22.048Z,61.13
2023-02-19T04:56:50.752Z,60.96
2023-02-19T04:59:17.793Z,60.95
2023-02-19T05:01:44.628Z,60.49
2023-02-19T05:04:11.587Z,60.48
2023-02-19T05:06:38.393Z,60.34
2023-02-19T05:09:05.161Z,60.00
2023-02-19T05:11:32.052Z,60.17
2023-02-19T05:13:58.805Z,59.72
2023-02-19T05:16:25.558Z,59.40
2023-02-19T05:18:52.437Z,58.68
2023-02-19T05:21:19.217Z,58.28
2023-02-19T05:23:45.994Z,57.59
2023-02-19T05:26:18.955Z,55.50
2023-02-19T05:28:46.856Z,54.08
2023-02-19T05:31:14.885Z,53.25
2023-02-19T05:33:43.155Z,51.63
2023-02-19T05:36:14.085Z,51.49
2023-02-19T05:38:41.188Z,50.39
2023-02-19T05:41:20.508Z,49.39
2023-02-19T05:43:48.462Z,49.28
2023-02-19T05:46:17.725Z,48.71
2023-02-19T05:48:44.592Z,47.71
2023-02-19T05:51:16.490Z,48.27
2023-02-19T05:53:45.296Z,47.59
2023-02-19T05:56:24.284Z,47.86
2023-02-19T05:58:51.233Z,47.75
2023-02-19T06:01:19.427Z,47.86
2023-02-19T06:03:46.285Z,47.29
2023-02-19T06:06:17.895Z,46.47
2023-02-19T06:08:44.819Z,46.99
2023-02-19T06:11:11.941Z,47.02
2023-02-19T06:13:38.886Z,47.12
2023-02-19T06:16:07.181Z,46.57
2023-02-19T06:18:34.290Z,47.01
2023-02-19T06:21:05.666Z,47.44
2023-02-19T06:23:32.921Z,48.11
2023-02-19T06:26:11.725Z,48.39
2023-02-19T06:28:39.300Z,48.28
2023-02-19T06:31:07.675Z,47.30
2023-02-19T06:33:35.420Z,47.10
2023-02-19T06:36:03.854Z,47.32
2023-02-19T06:38:31.296Z,47.19
2023-02-19T06:41:02.793Z,46.93
2023-02-19T06:43:30.173Z,47.74
2023-02-19T06:46:01.054Z,47.53
2023-02-19T06:48:29.672Z,47.16
2023-02-19T06:50:56.879Z,47.60
2023-02-19T06:53:23.753Z,47.06
2023-02-19T06:56:08.072Z,46.76
2023-02-19T06:58:35.131Z,47.09
2023-02-19T07:01:02.032Z,46.81
2023-02-19T07:03:28.828Z,46.62
2023-02-19T07:05:55.600Z,46.42
2023-02-19T07:08:22.456Z,45.95
2023-02-19T07:10:56.943Z,46.19
2023-02-19T07:13:25.068Z,45.36
2023-02-19T07:15:52.256Z,45.08
2023-02-19T07:18:19.262Z,45.41
2023-02-19T07:20:46.090Z,44.42
2023-02-19T07:23:12.894Z,44.92
2023-02-19T07:25:39.892Z,43.51
2023-02-19T07:28:07.438Z,43.54
2023-02-19T07:30:34.682Z,43.17
2023-02-19T07:33:01.659Z,43.02
2023-02-19T07:35:28.538Z,42.97
2023-02-19T07:37:55.436Z,41.90
2023-02-19T07:40:22.196Z,41.43
2023-02-19T07:42:48.968Z,41.15
2023-02-19T07:45:16.896Z,40.34
2023-02-19T07:47:43.652Z,40.58
2023-02-19T07:50:12.393Z,39.86
2023-02-19T07:52:40.570Z,39.55
2023-02-19T07:55:07.397Z,38.68
2023-02-19T07:57:34.159Z,38.86
2023-02-19T08:00:01.084Z,37.98
2023-02-19T08:02:46.385Z,37.41
2023-02-19T08:05:13.916Z,37.65
2023-02-19T08:07:40.801Z,36.87
2023-02-19T08:10:26.667Z,36.88
2023-02-19T08:13:19.077Z,36.65
2023-02-19T08:15:50.688Z,36.18
2023-02-19T08:18:19.416Z,35.94
2023-02-19T08:20:46.171Z,35.40
2023-02-19T08:23:13.537Z,34.77
2023-02-19T08:25:40.949Z,34.52
2023-02-19T08:28:10.323Z,34.90
2023-02-19T08:30:39.186Z,34.07
2023-02-19T08:33:07.356Z,34.86
2023-02-19T08:35:37.163Z,34.08
2023-02-19T08:38:05.590Z,34.62
2023-02-19T08:40:33.229Z,34.38
2023-02-19T08:43:08.444Z,33.75
2023-02-19T08:45:37.483Z,33.40
2023-02-19T08:48:04.565Z,33.66
2023-02-19T08:50:31.439Z,33.32
2023-02-19T08:53:02.532Z,31.77
2023-02-19T08:55:29.763Z,31.69
2023-02-19T08:57:56.787Z,32.04
2023-02-19T09:00:23.813Z,30.51
2023-02-19T09:02:50.806Z,30.32
2023-02-19T09:05:17.794Z,30.49
2023-02-19T09:07:44.446Z,30.76
2023-02-19T09:10:12.593Z,29.68
2023-02-19T09:12:40.297Z,30.45
2023-02-19T09:15:07.452Z,29.63
2023-02-19T09:17:34.144Z,29.22
2023-02-19T09:20:00.901Z,29.81
2023-02-19T09:22:27.769Z,29.53
2023-02-19T09:24:54.525Z,29.11
2023-02-19T09:27:21.287Z,29.46
2023-02-19T09:29:48.132Z,29.29
2023-02-19T09:32:14.912Z,28.60
2023-02-19T09:34:41.831Z,28.22
2023-02-19T09:37:08.810Z,28.28
2023-02-19T09:39:35.592Z,28.11
2023-02-19T09:42:15.434Z,27.57
2023-02-19T09:44:44.845Z,27.45
2023-02-19T09:47:20.085Z,27.71
2023-02-19T09:49:52.269Z,27.17
2023-02-19T09:52:24.143Z,26.30
2023-02-19T09:54:51.907Z,26.44
2023-02-19T09:57:19.964Z,26.06
2023-02-19T09:59:50.603Z,25.94
2023-02-19T10:02:20.156Z,25.38
2023-02-19T10:04:51.417Z,24.66
2023-02-19T10:07:20.882Z,24.14
2023-02-19T10:10:18.904Z,24.16
2023-02-19T10:12:51.375Z,23.51
2023-02-19T10:15:22.955Z,23.66
2023-02-19T10:17:49.674Z,23.38
2023-02-19T10:20:18.866Z,23.43
2023-02-19T10:22:45.911Z,22.77
2023-02-19T10:25:14.616Z,22.59
2023-02-19T10:27:41.356Z,22.44
2023-02-19T10:30:16.996Z,22.34
2023-02-19T10:32:58.954Z,21.91
2023-02-19T10:35:25.951Z,22.06
2023-02-19T10:37:53.105Z,21.86
2023-02-19T10:40:22.866Z,21.47
2023-02-19T10:42:59.069Z,21.77
2023-02-19T10:45:39.906Z,21.58
2023-02-19T10:48:07.792Z,21.20
2023-02-19T10:50:46.978Z,21.73
2023-02-19T10:53:24.514Z,20.82
2023-02-19T10:56:27.556Z,21.08
2023-02-19T10:58:55.227Z,21.33
2023-02-19T11:01:25.677Z,21.08
2023-02-19T11:04:17.376Z,21.56
2023-02-19T11:06:45.187Z,21.32
2023-02-19T11:09:23.913Z,20.87
2023-02-19T11:11:52.495Z,20.71
2023-02-19T11:14:21.640Z,20.47
2023-02-19T11:16:52.137Z,20.24
2023-02-19T11:19:43.972Z,19.31
2023-02-19T11:22:38.903Z,19.86
2023-02-19T11:25:14.701Z,19.39
2023-02-19T11:28:16.832Z,21.14
2023-02-19T11:30:47.633Z,21.41
2023-02-19T11:33:17.441Z,21.39
2023-02-19T11:35:45.011Z,20.09
2023-02-19T11:38:14.110Z,19.87
2023-02-19T11:40:44.959Z,18.91
2023-02-19T11:43:20.902Z,19.02
2023-02-19T11:46:23.184Z,18.39
2023-02-19T11:48:54.968Z,17.81
2023-02-19T11:51:39.643Z,17.76
2023-02-19T11:54:09.376Z,16.94
2023-02-19T11:56:41.075Z,16.33
2023-02-19T11:59:17.373Z,16.59
2023-02-19T12:02:02.603Z,16.62
2023-02-19T12:04:44.670Z,16.84
2023-02-19T12:07:17.652Z,16.53
2023-02-19T12:10:03.076Z,17.25
2023-02-19T12:12:54.605Z,17.26
2023-02-19T12:15:24.354Z,19.05
2023-02-19T12:18:15.112Z,19.65
2023-02-19T12:21:23.179Z,19.63
2023-02-19T12:24:27.822Z,19.44
2023-02-19T12:27:51.831Z,19.09
2023-02-19T12:30:40.139Z,19.53
2023-02-19T12:33:34.407Z,19.25
2023-02-19T12:36:33.598Z,18.96
2023-02-19T12:39:38.142Z,18.62
2023-02-19T12:42:43.351Z,18.94
2023-02-19T12:45:32.392Z,18.55
2023-02-19T12:48:12.829Z,18.73
2023-02-19T12:50:39.846Z,19.81
2023-02-19T12:53:34.199Z,19.63
2023-02-19T12:56:05.727Z,19.26
2023-02-19T12:58:38.113Z,19.43
2023-02-19T13:01:07.447Z,18.72
2023-02-19T13:04:12.537Z,18.74
2023-02-19T13:06:50.575Z,18.80
2023-02-19T13:09:51.145Z,18.66
2023-02-19T13:12:29.705Z,18.65
2023-02-19T13:15:15.097Z,18.35
2023-02-19T13:17:46.218Z,17.95
2023-02-19T13:20:27.472Z,18.27
2023-02-19T13:23:19.235Z,17.36
2023-02-19T13:25:46.023Z,17.74
2023-02-19T13:28:21.518Z,18.16
2023-02-19T13:30:57.698Z,17.81
2023-02-19T13:33:32.648Z,17.60
2023-02-19T13:36:31.726Z,17.31
2023-02-19T13:38:59.659Z,17.21
2023-02-19T13:41:30.284Z,17.13
2023-02-19T13:44:00.960Z,17.07
2023-02-19T13:46:38.396Z,16.86
2023-02-19T13:49:24.057Z,17.15
2023-02-19T13:51:52.170Z,17.09
2023-02-19T13:54:40.246Z,17.48
2023-02-19T13:57:26.661Z,18.13
2023-02-19T13:59:54.857Z,18.57
2023-02-19T14:02:21.546Z,18.80
2023-02-19T14:04:57.147Z,19.19
2023-02-19T14:07:26.936Z,19.89
2023-02-19T14:09:54.323Z,19.76
2023-02-19T14:12:22.926Z,20.28
2023-02-19T14:14:51.625Z,19.82
2023-02-19T14:17:43.745Z,19.59
2023-02-19T14:20:11.729Z,19.74
2023-02-19T14:22:47.652Z,19.80
2023-02-19T14:25:43.344Z,19.95
2023-02-19T14:28:10.121Z,20.04
2023-02-19T14:30:49.069Z,19.32
2023-02-19T14:33:17.911Z,19.35
2023-02-19T14:35:46.938Z,19.79
2023-02-19T14:38:30.580Z,19.82
2023-02-19T14:40:57.562Z,20.07
2023-02-19T14:43:25.838Z,19.83
2023-02-19T14:46:00.523Z,20.67
2023-02-19T14:48:48.253Z,20.90
2023-02-19T14:51:40.864Z,22.46
2023-02-19T14:54:27.823Z,22.17
2023-02-19T14:56:54.888Z,22.40
2023-02-19T14:59:24.611Z,22.57
2023-02-19T15:02:12.885Z,22.51
2023-02-19T15:04:40.325Z,22.87
2023-02-19T15:07:09.616Z,23.77
2023-02-19T15:09:40.282Z,23.83
2023-02-19T15:12:07.635Z,24.95
2023-02-19T15:14:34.993Z,26.07
2023-02-19T15:17:04.257Z,25.57
2023-02-19T15:19:35.055Z,26.25
2023-02-19T15:22:02.738Z,26.84
2023-02-19T15:24:30.117Z,26.94
2023-02-19T15:26:56.942Z,26.84
2023-02-19T15:29:25.918Z,27.37
2023-02-19T15:32:00.923Z,27.94
2023-02-19T15:34:30.622Z,27.64
2023-02-19T15:37:08.384Z,28.24
2023-02-19T15:39:36.078Z,28.42
2023-02-19T15:42:05.161Z,28.63
2023-02-19T15:44:44.614Z,28.54
2023-02-19T15:47:25.484Z,28.48
2023-02-19T15:49:54.014Z,29.29
2023-02-19T15:52:27.774Z,29.98
2023-02-19T15:55:20.774Z,30.18
2023-02-19T15:58:00.710Z,31.02
2023-02-19T16:00:50.625Z,31.25
2023-02-19T16:03:22.400Z,31.39
2023-02-19T16:06:02.792Z,31.89
2023-02-19T16:08:31.189Z,32.60
2023-02-19T16:11:00.402Z,33.10
2023-02-19T16:13:29.124Z,32.99
2023-02-19T16:16:15.224Z,33.54
2023-02-19T16:18:47.351Z,33.90
2023-02-19T16:21:16.334Z,34.62
2023-02-19T16:23:44.170Z,35.29
2023-02-19T16:26:11.335Z,36.13
2023-02-19T16:28:39.764Z,36.21
2023-02-19T16:31:13.769Z,36.58
2023-02-19T16:33:48.733Z,36.53
2023-02-19T16:36:41.626Z,37.34
2023-02-19T16:39:08.493Z,36.98
2023-02-19T16:41:41.365Z,37.26
2023-02-19T16:44:32.542Z,37.79
2023-02-19T16:47:15.981Z,38.66
2023-02-19T16:49:44.170Z,39.33
2023-02-19T16:52:15.494Z,39.92
2023-02-19T16:54:43.305Z,40.26
2023-02-19T16:57:10.032Z,40.28
2023-02-19T16:59:37.004Z,41.34
2023-02-19T17:02:05.672Z,41.53
2023-02-19T17:04:32.462Z,41.14
2023-02-19T17:06:59.278Z,41.78
2023-02-19T17:09:26.052Z,42.32
2023-02-19T17:11:52.816Z,43.03
2023-02-19T17:14:19.649Z,43.52
2023-02-19T17:16:46.996Z,44.23
2023-02-19T17:19:16.890Z,45.29
2023-02-19T17:21:45.246Z,45.43
2023-02-19T17:24:12.309Z,45.59
2023-02-19T17:26:39.410Z,45.59
2023-02-19T17:29:08.576Z,46.00
2023-02-19T17:31:35.393Z,45.68
2023-02-19T17:34:02.198Z,45.21
2023-02-19T17:36:31.287Z,45.81
2023-02-19T17:38:59.513Z,46.44
2023-02-19T17:41:26.743Z,47.08
2023-02-19T17:43:53.652Z,46.42
2023-02-19T17:46:25.681Z,47.28
2023-02-19T17:48:53.177Z,47.39
2023-02-19T17:51:20.670Z,46.97
2023-02-19T17:53:47.493Z,47.08
2023-02-19T17:56:19.379Z,46.70
2023-02-19T17:58:46.162Z,47.90
2023-02-19T18:01:13.846Z,47.67
2023-02-19T18:03:40.892Z,48.39
2023-02-19T18:06:07.847Z,48.27
2023-02-19T18:08:34.648Z,48.72
2023-02-19T18:11:01.566Z,48.46
2023-02-19T18:13:28.314Z,48.40
2023-02-19T18:15:55.059Z,48.23
2023-02-19T18:18:23.309Z,49.05
2023-02-19T18:20:50.131Z,48.82
2023-02-19T18:23:16.935Z,49.70
2023-02-19T18:25:43.695Z,49.56
2023-02-19T18:28:10.930Z,50.57
2023-02-19T18:30:37.740Z,50.00
2023-02-19T18:33:05.486Z,48.67
2023-02-19T18:35:34.086Z,48.61
2023-02-19T18:38:01.735Z,47.83
2023-02-19T18:40:28.979Z,47.68
2023-02-19T18:42:55.908Z,46.69
2023-02-19T18:45:22.672Z,44.98
2023-02-19T18:47:50.018Z,43.90
2023-02-19T18:50:18.180Z,42.99
2023-02-19T18:52:45.003Z,42.50
2023-02-19T18:55:14.220Z,41.88
2023-02-19T18:57:41.113Z,42.13
2023-02-19T19:00:08.396Z,41.75
2023-02-19T19:02:48.332Z,41.25
2023-02-19T19:05:23.587Z,40.60
2023-02-19T19:07:52.702Z,40.77
2023-02-19T19:10:20.049Z,41.27
2023-02-19T19:12:47.071Z,40.96
2023-02-19T19:15:17.020Z,41.00
2023-02-19T19:17:44.892Z,40.33
2023-02-19T19:20:12.063Z,41.13
2023-02-19T19:22:38.846Z,41.11
2023-02-19T19:25:05.930Z,41.42
2023-02-19T19:27:32.686Z,41.17
2023-02-19T19:29:59.439Z,40.17
2023-02-19T19:32:26.270Z,40.78
2023-02-19T19:34:53.174Z,40.62
2023-02-19T19:37:19.917Z,40.72
2023-02-19T19:39:46.812Z,40.41
2023-02-19T19:42:14.063Z,40.47
2023-02-19T19:44:40.860Z,40.29
2023-02-19T19:47:07.685Z,40.42
2023-02-19T19:49:34.451Z,40.41
2023-02-19T19:52:01.333Z,40.82
2023-02-19T19:54:28.779Z,40.58
2023-02-19T19:56:55.775Z,40.32
2023-02-19T19:59:23.194Z,41.07
2023-02-19T20:01:52.625Z,40.83
2023-02-19T20:04:21.342Z,40.83
2023-02-19T20:06:48.733Z,41.48
2023-02-19T20:09:16.615Z,41.44
2023-02-19T20:11:48.025Z,41.55
2023-02-19T20:14:15.896Z,41.34
2023-02-19T20:16:44.697Z,41.62
2023-02-19T20:19:11.621Z,41.58
2023-02-19T20:21:38.645Z,41.61
2023-02-19T20:24:05.612Z,41.67
2023-02-19T20:26:32.694Z,41.75
2023-02-19T20:28:59.630Z,41.96
2023-02-19T20:31:26.764Z,41.98
2023-02-19T20:33:53.687Z,42.20
2023-02-19T20:36:20.808Z,42.49
2023-02-19T20:38:49.594Z,43.48
2023-02-19T20:41:16.417Z,43.15
2023-02-19T20:43:43.304Z,43.20
2023-02-19T20:46:13.977Z,43.71
2023-02-19T20:48:44.894Z,43.70
2023-02-19T20:51:11.829Z,44.21
2023-02-19T20:53:44.236Z,43.62
2023-02-19T20:56:12.090Z,43.97
2023-02-19T20:58:43.106Z,43.93
2023-02-19T21:01:11.837Z,43.81
2023-02-19T21:03:38.717Z,44.37
2023-02-19T21:06:05.722Z,44.11
2023-02-19T21:08:32.871Z,44.63
2023-02-19T21:10:59.918Z,44.46
2023-02-19T21:13:30.283Z,44.46
2023-02-19T21:15:57.545Z,44.88
2023-02-19T21:18:24.737Z,45.20
2023-02-19T21:20:51.684Z,44.76
2023-02-19T21:23:18.384Z,45.20
2023-02-19T21:25:45.167Z,45.43
2023-02-19T21:28:12.532Z,45.40
2023-02-19T21:30:39.601Z,44.73
2023-02-19T21:33:06.487Z,45.22
2023-02-19T21:35:33.410Z,44.70
2023-02-19T21:38:00.256Z,45.30
2023-02-19T21:40:29.004Z,43.96
2023-02-19T21:42:56.000Z,44.39
2023-02-19T21:45:22.867Z,44.88
2023-02-19T21:47:52.214Z,44.75
2023-02-19T21:50:22.590Z,45.35
2023-02-19T21:52:49.506Z,44.76
2023-02-19T21:55:16.499Z,45.91
2023-02-19T21:57:43.478Z,45.03
2023-02-19T22:00:10.771Z,45.96
2023-02-19T22:02:37.649Z,45.86
2023-02-19T22:05:04.703Z,46.02
2023-02-19T22:07:31.704Z,46.28
2023-02-19T22:09:58.558Z,46.24
2023-02-19T22:12:25.385Z,46.10
2023-02-19T22:14:52.911Z,46.03
2023-02-19T22:17:20.715Z,46.45
2023-02-19T22:19:47.496Z,45.96
2023-02-19T22:22:14.448Z,46.72
2023-02-19T22:24:41.224Z,47.04
2023-02-19T22:27:08.310Z,47.00
2023-02-19T22:29:35.173Z,47.50
2023-02-19T22:32:02.204Z,46.93
2023-02-19T22:34:29.017Z,47.16
2023-02-19T22:36:55.967Z,47.29
2023-02-19T22:39:26.868Z,47.51
2023-02-19T22:41:54.015Z,47.81
2023-02-19T22:44:20.977Z,47.96
2023-02-19T22:46:55.310Z,47.92
2023-02-19T22:49:22.745Z,48.17
2023-02-19T22:51:56.861Z,48.37
2023-02-19T22:54:26.885Z,48.20
2023-02-19T22:56:54.485Z,48.45
2023-02-19T22:59:21.994Z,48.27
2023-02-19T23:01:49.850Z,48.67
2023-02-19T23:04:16.995Z,49.37
2023-02-19T23:06:47.406Z,48.76
2023-02-19T23:09:21.595Z,49.21
2023-02-19T23:11:48.490Z,49.42
2023-02-19T23:14:21.566Z,49.51
2023-02-19T23:16:48.592Z,50.04
2023-02-19T23:19:15.998Z,50.40
2023-02-19T23:21:44.679Z,50.95
2023-02-19T23:24:12.825Z,50.74
2023-02-19T23:26:43.455Z,50.70
2023-02-19T23:29:10.401Z,50.65
2023-02-19T23:31:37.344Z,51.17
2023-02-19T23:34:04.359Z,51.77
2023-02-19T23:36:31.153Z,51.65
2023-02-19T23:38:57.870Z,51.63
2023-02-19T23:41:24.596Z,51.72
2023-02-19T23:43:52.410Z,51.86
2023-02-19T23:46:19.473Z,51.91
2023-02-19T23:48:46.466Z,52.50
2023-02-19T23:51:13.370Z,52.37
2023-02-19T23:53:40.174Z,52.31
2023-02-19T23:56:07.254Z,53.07
2023-02-19T23:58:34.083Z,53.12
